Time;durP1;ratioP1;P1;durP2;ratioP2;P2;SDS_P1;SDS_P2;PMS_P1;PMS_P2;Temp;Humidity;BMP_temperature;BMP_pressure;BME280_temperature;BME280_humidity;BME280_pressure;Samples;Min_cycle;Max_cycle;Signal;HPM_P1;HPM_P2
2022/05/31 00:01:48;;;;;;;9.60;4.10;;;;;;;8.45;67.35;100271.36;52688;1273;1018321;-61
2022/05/31 00:04:18;;;;;;;10.00;3.60;;;;;;;8.40;67.37;100267.48;52580;1273;1016382;-60
2022/05/31 00:06:47;;;;;;;9.80;4.00;;;;;;;8.38;67.49;100271.08;52560;1273;1016452;-59
2022/05/31 00:09:17;;;;;;;15.00;4.80;;;;;;;8.34;67.67;100275.07;52711;1273;1016482;-60
2022/05/31 00:11:46;;;;;;;13.40;3.80;;;;;;;8.29;67.85;100280.86;52533;1273;1015920;-60
2022/05/31 00:14:16;;;;;;;12.10;4.10;;;;;;;8.23;67.85;100278.06;52687;1273;1016586;-60
2022/05/31 00:16:47;;;;;;;12.70;4.40;;;;;;;8.17;67.79;100279.14;52639;1274;1016301;-60
2022/05/31 00:19:15;;;;;;;;;;;;;;;8.11;67.92;100274.42;52549;1274;1016155;-60
2022/05/31 00:21:55;;;;;;;10.00;3.40;;;;;;;8.07;67.90;100276.36;52578;1274;1016939;-59
2022/05/31 00:24:25;;;;;;;11.60;3.80;;;;;;;8.01;67.98;100275.42;52653;1273;1017389;-60
2022/05/31 00:26:54;;;;;;;11.60;4.20;;;;;;;7.94;68.08;100275.79;52554;1275;1016734;-60
2022/05/31 00:29:23;;;;;;;10.40;3.40;;;;;;;7.88;68.23;100279.20;52598;1273;1016664;-59
2022/05/31 00:31:53;;;;;;;10.30;3.30;;;;;;;7.82;68.18;100286.14;52509;1273;1015885;-59
2022/05/31 00:34:22;;;;;;;17.00;4.20;;;;;;;7.75;68.36;100289.60;52557;1273;1016345;-59
2022/05/31 00:36:52;;;;;;;9.50;3.80;;;;;;;7.68;68.48;100290.90;52632;1274;1016322;-60
2022/05/31 00:39:21;;;;;;;11.90;4.00;;;;;;;7.64;68.56;100288.79;52639;1273;1016635;-60
2022/05/31 00:42:03;;;;;;;9.70;3.20;;;;;;;7.61;68.67;100286.37;52533;1274;1016322;-59
2022/05/31 00:44:33;;;;;;;11.10;3.30;;;;;;;7.56;68.70;100286.58;52648;1273;1016845;-61
2022/05/31 00:47:03;;;;;;;;;;;;;;;7.50;68.89;100292.38;52640;1273;1016677;-59
2022/05/31 00:49:36;;;;;;;8.80;3.30;;;;;;;7.42;68.88;100295.70;52727;1274;1016690;-61
2022/05/31 00:52:11;;;;;;;8.80;2.80;;;;;;;7.35;68.86;100295.56;52661;1273;1016311;-59
2022/05/31 00:54:44;;;;;;;10.10;3.10;;;;;;;7.29;68.84;100296.17;52643;1273;1016630;-60
2022/05/31 00:57:14;;;;;;;10.80;2.90;;;;;;;7.23;68.88;100298.46;52548;1275;1016710;-59
2022/05/31 00:59:46;;;;;;;8.60;2.40;;;;;;;7.17;68.86;100298.79;52521;1275;1016562;-59
2022/05/31 01:02:17;;;;;;;11.10;3.00;;;;;;;7.12;68.92;100301.20;52559;1274;1016213;-58
2022/05/31 01:04:48;;;;;;;;;;;;;;;7.10;68.94;100298.05;52635;1275;1016644;-59
2022/05/31 01:07:20;;;;;;;9.00;2.80;;;;;;;7.04;68.88;100304.98;52489;1274;1016274;-59
2022/05/31 01:09:49;;;;;;;7.70;2.50;;;;;;;7.00;68.90;100305.63;52514;1273;1017203;-59
2022/05/31 01:12:19;;;;;;;10.40;3.10;;;;;;;6.95;69.00;100310.24;52679;1274;1016216;-59
2022/05/31 01:14:49;;;;;;;10.10;3.20;;;;;;;6.91;69.11;100313.73;52601;1274;1016712;-60
2022/05/31 01:17:21;;;;;;;8.20;3.10;;;;;;;6.86;69.09;100316.77;52604;1274;1017563;-61
2022/05/31 01:19:58;;;;;;;9.40;2.90;;;;;;;6.84;69.11;100314.88;52589;1273;1015960;-59
2022/05/31 01:22:37;;;;;;;8.80;2.50;;;;;;;6.82;69.23;100312.73;52530;1277;1019329;-59
2022/05/31 01:25:29;;;;;;;8.10;2.50;;;;;;;6.80;69.23;100318.73;52642;1275;1016292;-59
2022/05/31 01:28:06;;;;;;;10.30;3.20;;;;;;;6.79;69.44;100314.70;52526;1275;1016299;-58
2022/05/31 01:30:47;;;;;;;11.10;3.40;;;;;;;6.77;69.54;100313.67;52610;1274;1016324;-59
2022/05/31 01:33:23;;;;;;;9.70;3.10;;;;;;;6.75;69.56;100311.54;52556;1274;1016588;-59
2022/05/31 01:35:53;;;;;;;9.40;2.70;;;;;;;6.73;69.59;100313.59;52476;1274;1016621;-59
2022/05/31 01:38:28;;;;;;;10.90;3.30;;;;;;;6.70;69.64;100313.47;52581;1274;1016485;-59
2022/05/31 01:41:11;;;;;;;15.40;3.40;;;;;;;6.67;69.74;100315.23;52542;1274;1016127;-58
2022/05/31 01:43:44;;;;;;;9.10;2.60;;;;;;;6.65;69.80;100315.55;52614;1275;1016277;-58
2022/05/31 01:46:20;;;;;;;8.90;3.10;;;;;;;6.62;69.85;100318.89;52551;1274;1017819;-58
2022/05/31 01:48:49;;;;;;;8.70;2.70;;;;;;;6.60;70.02;100317.33;52590;1274;1016330;-59
2022/05/31 01:51:18;;;;;;;11.00;3.10;;;;;;;6.58;70.01;100320.33;52531;1274;1016733;-59
2022/05/31 01:53:47;;;;;;;11.80;3.50;;;;;;;6.55;70.21;100323.51;52595;1275;1016677;-59
2022/05/31 01:56:17;;;;;;;12.10;3.60;;;;;;;6.51;70.29;100322.69;52576;1274;1015665;-59
2022/05/31 01:58:50;;;;;;;10.20;2.80;;;;;;;6.50;70.18;100322.17;52585;1274;1016615;-60
2022/05/31 02:01:19;;;;;;;10.40;2.70;;;;;;;6.48;70.21;100320.73;52633;1273;1016280;-59
2022/05/31 02:03:49;;;;;;;8.60;2.80;;;;;;;6.45;70.23;100319.80;52545;1274;1016490;-58
2022/05/31 02:06:27;;;;;;;13.00;4.00;;;;;;;6.43;70.23;100321.01;52524;1274;1016572;-59
2022/05/31 02:08:57;;;;;;;12.00;3.80;;;;;;;6.38;70.34;100322.91;52547;1274;1016688;-59
2022/05/31 02:11:27;;;;;;;18.40;5.10;;;;;;;6.34;70.41;100321.79;52427;1274;1016587;-58
2022/05/31 02:13:58;;;;;;;16.10;4.90;;;;;;;6.30;70.38;100322.25;52535;1275;1016217;-59
2022/05/31 02:16:26;;;;;;;;;;;;;;;6.26;70.44;100319.85;52741;1274;1016323;-60
2022/05/31 02:21:44;;;;;;;13.60;4.00;;;;;;;6.16;70.62;100312.81;52520;1274;1015971;-59
2022/05/31 02:24:15;;;;;;;11.40;3.90;;;;;;;6.12;70.64;100313.29;52604;1274;1016108;-59
2022/05/31 02:26:44;;;;;;;;;;;;;;;6.08;70.71;100312.54;52613;1274;1016683;-59
2022/05/31 02:29:15;;;;;;;10.10;3.20;;;;;;;6.03;70.83;100314.04;52496;1274;1016318;-58
2022/05/31 02:31:46;;;;;;;11.40;3.00;;;;;;;6.00;70.79;100316.73;52538;1274;1016289;-58
2022/05/31 02:34:18;;;;;;;10.80;2.70;;;;;;;5.98;70.97;100314.84;52535;1274;1016330;-59
2022/05/31 02:36:47;;;;;;;8.80;2.50;;;;;;;5.96;70.99;100310.08;52497;1274;1016213;-59
2022/05/31 02:39:17;;;;;;;;;;;;;;;5.95;70.90;100309.83;52562;1271;1016258;-59
2022/05/31 02:41:46;;;;;;;10.70;2.80;;;;;;;5.91;70.96;100313.58;52655;1274;1016675;-60
2022/05/31 02:44:17;;;;;;;11.10;3.10;;;;;;;5.89;71.02;100315.40;52627;1274;1016513;-59
2022/05/31 02:46:47;;;;;;;9.50;3.40;;;;;;;5.86;71.18;100320.84;52607;1274;1016590;-59
2022/05/31 02:49:16;;;;;;;10.40;2.90;;;;;;;5.85;71.27;100327.63;52700;1274;1016625;-59
2022/05/31 02:51:48;;;;;;;7.90;2.20;;;;;;;5.82;71.39;100326.89;52558;1274;1016521;-59
2022/05/31 02:54:19;;;;;;;5.90;1.90;;;;;;;5.79;71.39;100330.79;52546;1274;1015927;-59
2022/05/31 02:56:48;;;;;;;5.60;1.40;;;;;;;5.74;71.69;100328.70;52573;1274;1019066;-59
2022/05/31 02:59:18;;;;;;;5.80;1.30;;;;;;;5.73;71.89;100326.02;52481;1274;1016568;-59
2022/05/31 03:01:49;;;;;;;3.60;1.10;;;;;;;5.68;71.69;100327.09;52544;1274;1016899;-59
2022/05/31 03:04:19;;;;;;;5.60;1.40;;;;;;;5.64;71.58;100328.65;52497;1274;1015902;-60
2022/05/31 03:06:49;;;;;;;5.10;1.20;;;;;;;5.60;71.63;100327.05;52701;1274;1015924;-58
2022/05/31 03:09:19;;;;;;;5.80;1.40;;;;;;;5.57;71.66;100326.34;52719;1274;1015988;-58
2022/05/31 03:11:54;;;;;;;8.80;1.70;;;;;;;5.54;71.71;100323.27;52627;1274;1015982;-58
2022/05/31 03:14:27;;;;;;;8.70;1.90;;;;;;;5.52;71.81;100322.70;52512;1274;1016393;-58
2022/05/31 03:17:02;;;;;;;10.60;2.20;;;;;;;5.52;72.02;100324.52;52652;1274;1016149;-58
2022/05/31 03:19:34;;;;;;;13.90;2.20;;;;;;;5.52;72.11;100325.07;52765;1274;1016449;-61
2022/05/31 03:22:09;;;;;;;10.80;2.90;;;;;;;5.54;72.34;100323.73;52500;1273;1015841;-59
2022/05/31 03:24:43;;;;;;;15.80;3.50;;;;;;;5.59;72.59;100325.42;52533;1274;1016307;-58
2022/05/31 03:27:14;;;;;;;16.30;4.50;;;;;;;5.64;72.82;100327.48;52658;1273;1016433;-59
2022/05/31 03:29:46;;;;;;;13.60;4.70;;;;;;;5.66;72.93;100326.20;52833;1273;1016609;-59
2022/05/31 03:32:17;;;;;;;11.40;3.40;;;;;;;5.68;73.02;100327.80;52636;1273;1018399;-60
2022/05/31 03:34:46;;;;;;;14.30;4.10;;;;;;;5.71;73.10;100322.24;52610;1274;1016562;-59
2022/05/31 03:37:15;;;;;;;15.00;4.50;;;;;;;5.74;73.12;100325.98;52663;1273;1016001;-60
2022/05/31 03:39:44;;;;;;;15.30;5.70;;;;;;;5.76;73.47;100321.40;52710;1273;1016526;-59
2022/05/31 03:42:13;;;;;;;14.40;4.30;;;;;;;5.74;73.85;100324.27;52683;1273;1016676;-59
2022/05/31 03:44:42;;;;;;;11.80;4.60;;;;;;;5.69;73.88;100323.73;52597;1274;1016033;-59
2022/05/31 03:47:11;;;;;;;13.40;4.40;;;;;;;5.68;73.92;100329.00;52607;1273;1016686;-60
2022/05/31 03:49:40;;;;;;;15.60;4.00;;;;;;;5.71;73.91;100328.66;52614;1273;1015869;-59
2022/05/31 03:52:10;;;;;;;16.30;3.70;;;;;;;5.72;74.10;100333.30;52641;1273;1016574;-61
2022/05/31 03:54:39;;;;;;;17.80;4.80;;;;;;;5.72;74.10;100333.37;52593;1273;1016637;-59
2022/05/31 03:57:16;;;;;;;12.60;5.30;;;;;;;5.73;74.23;100335.02;52504;1273;1016403;-61
2022/05/31 03:59:45;;;;;;;16.60;4.80;;;;;;;5.78;74.29;100335.83;52296;1274;1338149;-59
2022/05/31 04:02:14;;;;;;;15.60;5.30;;;;;;;5.83;74.42;100340.82;52626;1273;1016625;-59
2022/05/31 04:04:43;;;;;;;21.10;8.50;;;;;;;5.89;74.51;100339.93;52600;1273;1016641;-59
2022/05/31 04:07:12;;;;;;;25.50;13.30;;;;;;;5.98;74.88;100342.02;52625;1273;1016521;-61
2022/05/31 04:09:41;;;;;;;24.10;10.70;;;;;;;6.06;75.26;100346.17;52502;1273;1015977;-60
2022/05/31 04:12:11;;;;;;;20.00;8.00;;;;;;;6.14;75.41;100352.30;52568;1273;1016790;-59
2022/05/31 04:14:40;;;;;;;21.40;8.60;;;;;;;6.22;75.32;100360.54;52577;1273;1016351;-59
2022/05/31 04:17:10;;;;;;;18.00;8.70;;;;;;;6.28;75.46;100360.73;52604;1273;1017150;-60
2022/05/31 04:19:39;;;;;;;21.00;8.90;;;;;;;6.34;75.90;100363.30;52522;1274;1016552;-59
2022/05/31 04:22:08;;;;;;;21.70;9.70;;;;;;;6.41;76.06;100363.92;52515;1273;1016256;-59
2022/05/31 04:24:38;;;;;;;17.50;7.90;;;;;;;6.50;76.00;100365.04;52598;1274;1016573;-59
2022/05/31 04:27:07;;;;;;;16.50;7.60;;;;;;;6.60;75.99;100370.58;52511;1275;1016660;-60
2022/05/31 04:29:39;;;;;;;21.50;7.50;;;;;;;6.68;76.07;100372.43;52493;1274;1016524;-60
2022/05/31 04:32:09;;;;;;;16.90;6.70;;;;;;;6.77;76.11;100374.65;52648;1274;1018228;-61
2022/05/31 04:34:38;;;;;;;18.90;8.20;;;;;;;6.87;76.06;100380.02;52614;1274;1016367;-59
2022/05/31 04:37:08;;;;;;;18.40;7.70;;;;;;;6.99;76.21;100382.73;52522;1273;1015886;-59
2022/05/31 04:39:37;;;;;;;18.90;8.40;;;;;;;7.11;76.42;100388.86;52510;1275;1016610;-60
2022/05/31 04:42:09;;;;;;;24.00;11.10;;;;;;;7.25;77.00;100388.59;52753;1274;1018477;-60
2022/05/31 04:44:39;;;;;;;23.40;12.80;;;;;;;7.39;77.28;100391.11;52699;1274;1016951;-59
2022/05/31 04:47:11;;;;;;;22.90;11.10;;;;;;;7.53;77.38;100394.13;52702;1275;1016177;-62
2022/05/31 04:49:40;;;;;;;21.40;10.80;;;;;;;7.68;77.52;100390.86;52604;1273;1021278;-59
2022/05/31 04:52:10;;;;;;;19.90;9.90;;;;;;;7.81;77.64;100393.23;52619;1273;1016020;-60
2022/05/31 04:54:39;;;;;;;22.90;10.30;;;;;;;7.92;77.77;100390.15;52632;1273;1016466;-60
2022/05/31 04:57:09;;;;;;;20.60;10.50;;;;;;;8.03;77.59;100386.83;52586;1273;1015994;-61
2022/05/31 04:59:38;;;;;;;19.10;8.30;;;;;;;8.17;77.43;100392.70;52663;1273;1016218;-60
2022/05/31 05:02:07;;;;;;;17.00;8.10;;;;;;;8.35;77.80;100394.02;52673;1273;1017189;-61
2022/05/31 05:04:36;;;;;;;21.10;8.00;;;;;;;8.53;77.77;100391.67;52706;1273;1016370;-61
2022/05/31 05:07:06;;;;;;;18.60;7.90;;;;;;;8.69;77.66;100386.29;52731;1273;1016338;-62
2022/05/31 05:09:35;;;;;;;;;;;;;;;8.83;77.65;100381.06;52535;1274;1016124;-60
2022/05/31 05:12:05;;;;;;;23.10;8.70;;;;;;;8.90;77.33;100381.32;52504;1274;1016492;-60
2022/05/31 05:14:35;;;;;;;15.50;8.00;;;;;;;9.00;77.65;100378.56;52608;1274;1016585;-59
2022/05/31 05:17:05;;;;;;;17.60;7.80;;;;;;;9.11;77.44;100375.67;52601;1274;1017425;-61
2022/05/31 05:19:34;;;;;;;17.30;8.20;;;;;;;9.24;77.54;100373.34;52529;1274;1016571;-62
2022/05/31 05:22:06;;;;;;;15.40;7.20;;;;;;;9.37;77.25;100373.63;52502;1274;1016683;-60
2022/05/31 05:24:35;;;;;;;16.90;7.00;;;;;;;9.46;77.18;100372.80;52800;1273;1017427;-60
2022/05/31 05:27:05;;;;;;;18.20;8.00;;;;;;;9.58;77.13;100376.85;52655;1273;1016713;-61
2022/05/31 05:32:22;;;;;;;17.50;6.50;;;;;;;9.94;77.41;100375.48;52485;1272;1016478;-60
2022/05/31 05:34:54;;;;;;;16.00;6.90;;;;;;;10.14;76.83;100376.83;52772;1273;1016148;-60
2022/05/31 05:37:24;;;;;;;16.10;6.70;;;;;;;10.32;76.89;100376.68;53133;1273;1017352;-59
2022/05/31 05:39:53;;;;;;;16.60;6.60;;;;;;;10.53;76.88;100374.91;52631;1273;1016672;-59
2022/05/31 05:42:22;;;;;;;15.00;5.90;;;;;;;10.74;76.53;100372.70;52505;1273;1016385;-60
2022/05/31 05:44:52;;;;;;;17.60;7.00;;;;;;;10.90;76.24;100376.33;52626;1273;1016573;-59
2022/05/31 05:47:22;;;;;;;16.10;7.60;;;;;;;10.98;75.70;100374.30;52575;1273;1015760;-59
2022/05/31 05:49:52;;;;;;;15.80;6.50;;;;;;;11.06;76.15;100374.92;52704;1273;1016558;-61
2022/05/31 05:52:21;;;;;;;14.20;6.00;;;;;;;11.27;76.42;100377.95;52695;1273;1015885;-60
2022/05/31 05:54:50;;;;;;;11.30;4.90;;;;;;;11.46;75.96;100376.09;52603;1276;1016461;-62
2022/05/31 05:57:19;;;;;;;14.50;6.60;;;;;;;11.62;75.63;100379.98;52610;1273;1016273;-61
2022/05/31 05:59:52;;;;;;;14.40;6.40;;;;;;;11.72;75.45;100382.48;52577;1273;1016164;-61
2022/05/31 06:02:27;;;;;;;17.30;6.30;;;;;;;11.87;75.52;100383.02;52697;1273;1016201;-61
2022/05/31 06:05:04;;;;;;;12.70;5.40;;;;;;;12.02;75.14;100384.44;52654;1273;1016624;-61
2022/05/31 06:07:39;;;;;;;14.30;6.10;;;;;;;12.19;75.02;100387.95;52666;1274;1016554;-61
2022/05/31 06:10:12;;;;;;;10.10;4.30;;;;;;;12.31;74.52;100386.02;52538;1273;1015906;-62
2022/05/31 06:12:49;;;;;;;12.70;5.20;;;;;;;12.46;74.38;100387.40;52624;1273;1016200;-62
2022/05/31 06:15:26;;;;;;;13.00;6.10;;;;;;;12.54;73.68;100388.44;52638;1273;1016366;-62
2022/05/31 06:17:58;;;;;;;13.80;4.80;;;;;;;12.59;73.86;100393.55;52554;1273;1016341;-61
2022/05/31 06:20:29;;;;;;;15.90;5.90;;;;;;;12.71;74.07;100393.71;52625;1273;1016662;-62
2022/05/31 06:23:00;;;;;;;15.70;6.40;;;;;;;12.84;73.71;100388.46;52632;1273;1016126;-62
2022/05/31 06:25:28;;;;;;;12.70;4.10;;;;;;;12.95;73.12;100388.05;53522;1273;1016997;-62
2022/05/31 06:27:58;;;;;;;10.90;4.90;;;;;;;13.08;72.98;100390.80;52565;1273;1016146;-62
2022/05/31 06:30:27;;;;;;;12.20;3.90;;;;;;;13.23;72.88;100393.73;52593;1273;1016667;-62
2022/05/31 06:32:56;;;;;;;12.40;4.50;;;;;;;13.33;71.66;100395.36;52557;1273;1016384;-62
2022/05/31 06:35:26;;;;;;;9.00;3.70;;;;;;;13.34;72.20;100394.31;52657;1273;1016056;-62
2022/05/31 06:37:55;;;;;;;9.40;3.10;;;;;;;13.48;72.26;100391.48;52731;1273;1019135;-63
2022/05/31 06:40:26;;;;;;;9.80;2.70;;;;;;;13.58;71.39;100388.02;52667;1273;1016837;-63
2022/05/31 06:42:56;;;;;;;9.20;3.10;;;;;;;13.72;71.57;100390.68;52563;1273;1016563;-62
2022/05/31 06:45:25;;;;;;;14.90;3.90;;;;;;;13.83;70.68;100390.21;52626;1273;1020076;-63
2022/05/31 06:47:55;;;;;;;10.30;3.50;;;;;;;13.92;70.96;100388.45;52855;1273;1016537;-63
2022/05/31 06:50:25;;;;;;;11.00;3.80;;;;;;;14.06;70.48;100387.84;52554;1273;1017793;-63
2022/05/31 06:58:28;;;;;;;11.70;3.30;;;;;;;14.41;69.60;100393.20;52519;1273;1016171;-63
2022/05/31 07:01:02;;;;;;;9.00;2.50;;;;;;;14.49;69.05;100395.23;52684;1273;1016440;-63
2022/05/31 07:03:31;;;;;;;9.10;2.80;;;;;;;14.60;68.79;100391.89;52676;1273;1016787;-63
2022/05/31 07:06:00;;;;;;;6.70;2.70;;;;;;;14.70;68.50;100386.72;52584;1273;1017283;-62
2022/05/31 07:08:30;;;;;;;7.40;2.50;;;;;;;14.80;68.23;100386.77;52620;1273;1016349;-63
2022/05/31 07:11:00;;;;;;;7.90;2.50;;;;;;;14.91;67.79;100388.13;52677;1273;1016567;-63
2022/05/31 07:13:30;;;;;;;8.20;2.30;;;;;;;14.99;67.30;100390.46;52618;1273;1016622;-63
2022/05/31 07:16:02;;;;;;;8.80;2.80;;;;;;;15.05;67.31;100384.65;52630;1273;1016626;-63
2022/05/31 07:18:31;;;;;;;6.40;1.70;;;;;;;15.07;66.92;100386.75;52614;1273;1016603;-64
2022/05/31 07:21:01;;;;;;;6.70;2.00;;;;;;;15.15;67.02;100388.73;52623;1273;1016648;-64
2022/05/31 07:23:30;;;;;;;6.30;2.20;;;;;;;15.24;66.16;100381.67;52674;1273;1016378;-64
2022/05/31 07:26:02;;;;;;;8.10;2.10;;;;;;;15.28;65.59;100382.02;52720;1273;1016140;-64
2022/05/31 07:28:31;;;;;;;6.10;1.70;;;;;;;15.29;65.65;100379.51;52653;1273;1016491;-64
2022/05/31 07:31:01;;;;;;;6.40;1.90;;;;;;;15.37;65.44;100372.56;52559;1273;1016414;-64
2022/05/31 07:33:30;;;;;;;4.80;1.30;;;;;;;15.51;65.41;100374.40;52668;1273;1016614;-64
2022/05/31 07:36:02;;;;;;;4.70;1.60;;;;;;;15.62;65.07;100373.91;52661;1273;1018854;-64
2022/05/31 07:38:31;;;;;;;6.40;1.40;;;;;;;15.70;64.51;100376.77;52588;1273;1016259;-64
2022/05/31 07:41:00;;;;;;;4.60;1.40;;;;;;;15.79;64.66;100376.00;52776;1273;1016128;-66
2022/05/31 07:43:30;;;;;;;4.70;1.30;;;;;;;15.90;64.34;100376.52;52742;1273;1016461;-64
2022/05/31 07:46:05;;;;;;;6.20;1.80;;;;;;;16.01;62.97;100374.10;52530;1273;1016338;-63
2022/05/31 07:48:35;;;;;;;5.90;1.20;;;;;;;16.00;62.73;100370.98;52661;1273;1016554;-63
2022/05/31 07:51:06;;;;;;;8.00;1.60;;;;;;;16.06;63.38;100374.15;52611;1273;1015949;-63
2022/05/31 07:53:36;;;;;;;8.50;1.50;;;;;;;16.20;62.98;100372.18;52614;1273;1016683;-63
2022/05/31 07:56:07;;;;;;;8.00;1.90;;;;;;;16.30;62.73;100367.96;52569;1273;1016108;-64
2022/05/31 07:58:37;;;;;;;5.20;1.60;;;;;;;16.38;62.49;100367.48;52647;1273;1016487;-64
2022/05/31 08:01:06;;;;;;;;;;;;;;;16.47;62.36;100366.02;52746;1273;1016086;-64
2022/05/31 08:03:37;;;;;;;3.60;1.20;;;;;;;16.59;62.24;100366.36;52608;1273;1016662;-64
2022/05/31 08:06:09;;;;;;;4.20;1.10;;;;;;;16.72;61.15;100366.42;52761;1273;1016593;-64
2022/05/31 08:08:41;;;;;;;6.50;1.30;;;;;;;16.77;59.20;100364.25;52611;1273;1016412;-64
2022/05/31 08:11:12;;;;;;;4.80;1.30;;;;;;;16.71;59.87;100360.23;52655;1273;1016674;-64
2022/05/31 08:13:42;;;;;;;4.60;1.20;;;;;;;16.77;59.55;100358.77;52601;1273;1016399;-65
2022/05/31 08:16:14;;;;;;;6.30;1.60;;;;;;;16.75;58.68;100361.23;52516;1273;1016489;-64
2022/05/31 08:18:43;;;;;;;5.50;1.40;;;;;;;16.70;59.03;100359.95;52679;1273;1016769;-65
2022/05/31 08:21:14;;;;;;;5.00;1.60;;;;;;;16.76;59.06;100359.95;52618;1273;1016247;-64
2022/05/31 08:23:44;;;;;;;5.10;1.10;;;;;;;16.85;59.04;100361.04;52542;1274;1016515;-65
2022/05/31 08:26:14;;;;;;;3.90;1.20;;;;;;;16.95;58.48;100362.16;52641;1273;1016397;-64
2022/05/31 08:28:43;;;;;;;3.80;1.00;;;;;;;17.05;57.60;100358.11;52654;1273;1018451;-64
2022/05/31 08:31:17;;;;;;;4.50;1.00;;;;;;;17.12;58.00;100357.66;52628;1273;1016656;-65
2022/05/31 08:33:47;;;;;;;5.00;1.30;;;;;;;17.22;57.20;100356.43;52550;1273;1018553;-65
2022/05/31 08:36:16;;;;;;;3.40;0.90;;;;;;;17.26;57.09;100350.70;52612;1273;1016056;-65
2022/05/31 08:38:46;;;;;;;4.80;1.20;;;;;;;17.36;57.01;100349.52;52664;1273;1016324;-65
2022/05/31 08:41:28;;;;;;;3.30;0.90;;;;;;;17.43;56.64;100347.58;52572;1274;1016834;-65
2022/05/31 08:44:13;;;;;;;2.40;0.70;;;;;;;17.46;56.30;100346.00;52626;1274;1016153;-64
2022/05/31 08:47:02;;;;;;;3.80;1.10;;;;;;;17.54;56.28;100345.89;52582;1273;1016123;-64
2022/05/31 08:52:49;;;;;;;9.80;1.20;;;;;;;17.63;55.57;100339.91;52561;1273;1015902;-65
2022/05/31 08:58:14;;;;;;;3.20;0.80;;;;;;;17.84;55.07;100333.80;52543;1271;1016492;-65
2022/05/31 09:00:47;;;;;;;1.60;0.60;;;;;;;17.94;54.41;100328.14;52638;1273;1015971;-65
2022/05/31 09:03:20;;;;;;;3.20;1.00;;;;;;;18.01;53.92;100324.83;52685;1273;1015997;-66
2022/05/31 09:05:55;;;;;;;2.80;0.70;;;;;;;18.11;52.73;100325.75;52614;1273;1016201;-65
2022/05/31 09:08:30;;;;;;;2.90;0.70;;;;;;;18.04;52.91;100317.49;52595;1273;1016394;-65
2022/05/31 09:11:10;;;;;;;2.30;0.70;;;;;;;18.04;52.82;100318.89;52636;1273;1016118;-65
2022/05/31 09:13:44;;;;;;;3.80;0.70;;;;;;;18.04;52.03;100315.85;52671;1274;1016273;-65
2022/05/31 09:16:18;;;;;;;3.20;0.60;;;;;;;18.08;51.96;100311.61;52712;1273;1016835;-65
2022/05/31 09:18:54;;;;;;;3.60;0.60;;;;;;;18.14;52.04;100309.95;52617;1273;1017333;-66
2022/05/31 09:21:27;;;;;;;3.50;0.50;;;;;;;18.20;51.59;100311.36;52622;1273;1015625;-66
2022/05/31 09:23:58;;;;;;;2.20;0.60;;;;;;;18.29;51.33;100310.65;52700;1272;1016252;-66
2022/05/31 09:26:54;;;;;;;3.50;0.60;;;;;;;18.40;51.05;100306.06;52668;1273;1016576;-65
2022/05/31 09:29:27;;;;;;;2.50;0.50;;;;;;;18.52;50.40;100301.10;52631;1273;1016494;-65
2022/05/31 09:32:06;;;;;;;1.90;0.50;;;;;;;18.55;49.51;100297.64;52659;1273;1016679;-65
2022/05/31 09:34:48;;;;;;;2.90;1.00;;;;;;;18.61;50.31;100296.01;52677;1273;1016115;-65
2022/05/31 09:37:36;;;;;;;4.60;0.50;;;;;;;18.75;50.43;100292.23;52536;1273;1016246;-65
2022/05/31 09:40:31;;;;;;;3.40;0.60;;;;;;;18.84;49.89;100292.57;52622;1273;1017215;-66
2022/05/31 09:43:05;;;;;;;2.30;0.50;;;;;;;18.91;49.51;100287.13;52655;1273;1016365;-65
2022/05/31 09:45:39;;;;;;;1.90;0.60;;;;;;;19.01;49.19;100287.55;52512;1273;1016495;-66
2022/05/31 09:48:08;;;;;;;3.60;0.60;;;;;;;19.09;49.07;100283.14;52585;1273;1017132;-66
2022/05/31 09:50:37;;;;;;;1.70;0.50;;;;;;;19.13;48.53;100281.25;52585;1273;1016184;-66
2022/05/31 09:57:05;;;;;;;1.60;0.60;;;;;;;19.12;48.15;100277.08;52734;1273;1016195;-66
2022/05/31 09:59:05;;;;;;;2.00;0.50;;;;;;;19.24;47.52;100273.27;52690;1273;1018922;-66
2022/05/31 10:01:44;;;;;;;3.20;0.50;;;;;;;19.23;47.86;100273.67;52742;1273;1016702;-67
2022/05/31 10:04:22;;;;;;;4.70;0.50;;;;;;;19.28;47.70;100270.98;52621;1273;1016442;-67
2022/05/31 10:06:57;;;;;;;4.10;0.50;;;;;;;19.34;47.20;100264.57;52665;1273;1016170;-66
2022/05/31 10:09:34;;;;;;;2.50;0.60;;;;;;;19.38;47.53;100265.48;52657;1273;1016191;-67
2022/05/31 10:12:22;;;;;;;2.70;0.60;;;;;;;19.39;46.43;100261.11;52596;1273;1016140;-67
2022/05/31 10:14:54;;;;;;;4.30;0.60;;;;;;;19.34;46.91;100255.55;52616;1273;1020017;-67
2022/05/31 10:17:42;;;;;;;2.20;0.40;;;;;;;19.39;46.66;100254.77;52746;1273;1016179;-67
2022/05/31 10:20:42;;;;;;;2.10;0.40;;;;;;;19.47;47.16;100249.73;52532;1276;1016349;-67
2022/05/31 10:23:47;;;;;;;2.20;0.50;;;;;;;19.64;46.62;100245.11;52413;1276;1016395;-67
2022/05/31 10:26:41;;;;;;;2.30;0.50;;;;;;;19.74;46.18;100243.85;52435;1276;1016443;-67
2022/05/31 10:29:29;;;;;;;3.50;0.50;;;;;;;19.87;45.78;100243.97;52577;1276;1016168;-67
2022/05/31 10:32:20;;;;;;;3.90;0.50;;;;;;;19.92;44.98;100236.20;52481;1276;1016453;-67
2022/05/31 10:35:04;;;;;;;3.60;0.40;;;;;;;19.95;45.43;100239.44;52503;1276;1020010;-67
2022/05/31 10:37:34;;;;;;;1.60;0.40;;;;;;;20.12;45.67;100241.70;52503;1276;1016880;-68
2022/05/31 10:40:04;;;;;;;;;;;;;;;20.30;45.71;100242.70;52626;1276;1016354;-66
2022/05/31 10:42:34;;;;;;;;;;;;;;;20.49;45.28;100240.55;52573;1276;1016533;-68
2022/05/31 10:45:07;;;;;;;3.80;0.40;;;;;;;20.58;44.70;100239.61;52563;1276;1016429;-67
2022/05/31 10:47:36;;;;;;;2.20;0.30;;;;;;;20.66;44.24;100232.59;52490;1276;1016304;-69
2022/05/31 10:50:10;;;;;;;1.70;0.40;;;;;;;20.76;44.38;100233.02;52522;1277;1016273;-67
2022/05/31 10:52:47;;;;;;;2.80;0.50;;;;;;;20.85;44.07;100226.88;52703;1273;1016063;-67
2022/05/31 10:55:39;;;;;;;4.10;0.50;;;;;;;20.94;44.17;100228.98;52606;1273;1016501;-68
2022/05/31 10:58:27;;;;;;;1.80;0.40;;;;;;;21.09;44.38;100226.77;52576;1274;1016932;-68
2022/05/31 11:01:05;;;;;;;2.80;0.60;;;;;;;21.27;43.74;100225.66;52584;1273;1016573;-68
2022/05/31 11:03:39;;;;;;;;;;;;;;;21.37;43.21;100221.18;52555;1273;1016151;-68
2022/05/31 11:06:38;;;;;;;3.90;0.50;;;;;;;21.30;42.66;100218.71;52577;1274;1015983;-68
2022/05/31 11:12:29;;;;;;;3.70;0.50;;;;;;;21.20;42.58;100210.03;52570;1273;1016685;-68
2022/05/31 11:15:26;;;;;;;2.70;0.50;;;;;;;21.19;42.84;100208.92;52854;1273;1016447;-68
2022/05/31 11:18:12;;;;;;;3.30;0.50;;;;;;;21.23;42.56;100203.75;52842;1273;1016599;-68
2022/05/31 11:20:49;;;;;;;2.20;0.60;;;;;;;21.38;43.01;100203.38;52832;1273;1016436;-69
2022/05/31 11:23:36;;;;;;;4.60;0.60;;;;;;;21.51;42.10;100187.59;52767;1273;1016615;-68
2022/05/31 11:26:19;;;;;;;2.60;0.50;;;;;;;21.58;41.75;100186.70;52577;1273;1016310;-68
2022/05/31 11:29:07;;;;;;;3.10;0.50;;;;;;;21.67;42.52;100185.77;52660;1273;1015758;-68
2022/05/31 11:31:50;;;;;;;4.90;0.40;;;;;;;21.79;42.03;100184.52;52762;1273;1016577;-68
2022/05/31 11:34:51;;;;;;;5.30;0.60;;;;;;;21.84;42.06;100186.74;52887;1273;1016661;-68
2022/05/31 11:37:41;;;;;;;5.10;0.60;;;;;;;21.76;41.49;100191.66;52538;1281;1016678;-69
2022/05/31 11:40:30;;;;;;;2.50;0.50;;;;;;;21.69;41.80;100188.71;52556;1281;1016950;-68
2022/05/31 11:43:18;;;;;;;7.20;0.80;;;;;;;21.68;41.62;100186.57;52626;1281;1016657;-69
2022/05/31 11:45:55;;;;;;;1.90;0.50;;;;;;;21.67;41.67;100181.37;52647;1281;1016743;-69
2022/05/31 11:48:52;;;;;;;4.60;0.70;;;;;;;21.68;41.53;100175.96;52631;1281;1016649;-69
2022/05/31 11:51:47;;;;;;;2.60;0.50;;;;;;;21.74;41.79;100174.00;52638;1281;1016697;-69
2022/05/31 11:57:48;;;;;;;3.40;0.40;;;;;;;22.03;41.30;100171.48;52603;1281;1015881;-69
2022/05/31 12:00:18;;;;;;;1.90;0.40;;;;;;;22.13;40.87;100167.05;52567;1281;1019099;-69
2022/05/31 12:02:54;;;;;;;1.70;0.50;;;;;;;22.15;40.74;100164.85;52431;1281;1016424;-69
2022/05/31 12:05:32;;;;;;;2.50;0.40;;;;;;;22.15;41.05;100163.83;52446;1280;1016367;-69
2022/05/31 12:08:24;;;;;;;2.40;0.50;;;;;;;22.16;40.73;100163.80;52230;1282;1016381;-69